Forside
METAR-TAF:

METAR-TAF

Lufthavne :

Charles City, Iowa, USA

Breddekreds: 43-04N, længdekreds: 092-37W, højde: 343 m

Aktuelle vejr

Denne rapport blev lavet for 21 minutter siden, kl. 17:15 UTC
Vind stille
Temperatur 25°C
Fugtighed 47%
Tryk 1021 hPa
Sigt: 16.1 km
skyfri

METAR: KCCY 031715Z AUTO 00000KT 10SM CLR 25/13 A3014 RMK AO2

Tid: 12:36 (17:36 UTC)


TAF: fraværende

Vejrobservationer og prognoser fra mere end 4000 lufthavne (METAR og TAF).

De gule og røde prikker repræsenterer de meteorologiske stationer.

Flyt musen over at se navnet på stationen.

Så klik over at se vejr observationer og prognoser.

At skifte det kort: Klik på de grønne knapper med et sort kors for at zoome ind; på den grønne knap med en bindestreg for at zoome ud; eller på de grønne pile for tilstødende kort.


METAR-TAF: